Time;durP1;ratioP1;P1;durP2;ratioP2;P2;SDS_P1;SDS_P2;PMS_P1;PMS_P2;Temp;Humidity;BMP_temperature;BMP_pressure;BME280_temperature;BME280_humidity;BME280_pressure;Samples;Min_cycle;Max_cycle;Signal;HPM_P1;HPM_P2
2024/01/15 00:01:24;;;;;;;85.43;40.33;;;0.50;90.60;;;0.08;56.87;94391.59;5009303;28;20496;-66
2024/01/15 00:03:51;;;;;;;101.57;43.77;;;0.50;90.60;;;0.05;56.23;94390.03;5013985;28;20450;-62
2024/01/15 00:06:19;;;;;;;109.87;45.63;;;0.40;90.60;;;0.03;56.24;94388.44;5013922;28;20473;-63
2024/01/15 00:08:47;;;;;;;109.73;43.83;;;0.40;90.40;;;-0.02;56.57;94384.38;5015851;28;20962;-66
2024/01/15 00:11:15;;;;;;;96.83;44.40;;;0.40;90.70;;;-0.04;57.22;94393.13;5013687;28;20482;-66
2024/01/15 00:13:42;;;;;;;107.47;43.67;;;0.40;90.60;;;-0.06;56.62;94384.66;5013161;28;20450;-61
2024/01/15 00:16:10;;;;;;;89.40;42.10;;;0.30;90.70;;;-0.09;57.31;94384.81;5013899;28;20469;-66
2024/01/15 00:18:37;;;;;;;99.50;45.27;;;0.30;90.70;;;-0.15;56.19;94383.41;5012899;28;20457;-62
2024/01/15 00:21:05;;;;;;;87.50;43.30;;;0.30;90.70;;;-0.14;57.20;94379.06;5012792;28;20555;-66
2024/01/15 00:23:33;;;;;;;95.03;43.40;;;0.20;91.00;;;-0.14;57.20;94387.66;5013176;28;20453;-63
2024/01/15 00:26:01;;;;;;;102.97;43.23;;;0.20;91.00;;;-0.15;57.05;94383.41;5013544;28;20509;-66
2024/01/15 00:28:29;;;;;;;102.67;44.20;;;0.20;91.30;;;-0.17;57.80;94382.69;5012549;28;20452;-62
2024/01/15 00:30:57;;;;;;;116.47;51.30;;;0.20;91.60;;;-0.19;58.16;94382.75;5012728;28;20473;-67
2024/01/15 00:33:24;;;;;;;116.00;49.87;;;0.20;91.50;;;-0.19;56.91;94389.66;5012648;28;20445;-62
2024/01/15 00:35:52;;;;;;;99.90;43.73;;;0.20;91.30;;;-0.20;57.38;94388.03;5012631;28;21037;-61
2024/01/15 00:38:20;;;;;;;97.53;43.23;;;0.20;91.40;;;-0.20;58.00;94386.25;5012590;28;20485;-66
2024/01/15 00:40:47;;;;;;;111.03;46.07;;;0.20;91.60;;;-0.20;57.04;94382.84;5012390;28;20504;-62
2024/01/15 00:43:18;;;;;;;106.00;45.20;;;0.20;91.60;;;-0.18;57.21;94375.84;5012530;28;20465;-62
2024/01/15 00:45:45;;;;;;;110.53;46.07;;;0.20;91.80;;;-0.19;57.20;94385.34;5012696;28;20473;-62
2024/01/15 00:48:12;;;;;;;108.13;48.80;;;0.20;91.70;;;-0.19;57.64;94379.31;5012572;28;20462;-62
2024/01/15 00:50:40;;;;;;;89.00;42.83;;;0.20;91.80;;;-0.20;57.98;94382.84;5012452;28;20484;-67
2024/01/15 00:53:07;;;;;;;118.17;46.20;;;0.20;91.90;;;-0.19;57.12;94387.06;5012144;28;20961;-67
2024/01/15 00:55:36;;;;;;;95.90;43.10;;;0.20;91.70;;;-0.20;57.53;94385.44;5012200;28;20557;-61
2024/01/15 00:58:03;;;;;;;101.07;41.10;;;0.20;91.70;;;-0.19;57.47;94385.34;5012414;28;20477;-66
2024/01/15 01:00:32;;;;;;;87.07;39.37;;;0.20;91.90;;;-0.20;57.33;94383.66;5012289;28;20481;-62
2024/01/15 01:02:59;;;;;;;91.83;40.60;;;0.20;91.60;;;-0.19;57.48;94384.50;5012480;28;20472;-67
2024/01/15 01:05:27;;;;;;;83.70;39.13;;;0.20;92.00;;;-0.17;58.29;94384.41;5012247;28;20504;-67
2024/01/15 01:07:54;;;;;;;97.57;40.73;;;0.20;91.90;;;-0.16;57.63;94383.50;5011747;28;20492;-67
2024/01/15 01:10:21;;;;;;;89.70;41.83;;;0.20;91.90;;;-0.16;57.15;94376.56;5017794;28;20497;-66
2024/01/15 01:12:49;;;;;;;110.77;42.43;;;0.20;91.80;;;-0.17;57.45;94377.50;5012912;28;20446;-62
2024/01/15 01:15:16;;;;;;;83.67;39.20;;;0.20;92.00;;;-0.19;57.52;94372.44;5013905;28;20509;-67
2024/01/15 01:17:45;;;;;;;100.93;42.33;;;0.20;92.00;;;-0.19;57.83;94377.59;5015650;28;20461;-63
2024/01/15 01:20:15;;;;;;;75.00;35.43;;;0.20;92.10;;;-0.17;57.84;94361.16;5024901;28;20572;-62
2024/01/15 01:22:42;;;;;;;85.50;40.17;;;0.20;92.00;;;-0.20;57.73;94368.16;5012991;28;20493;-62
2024/01/15 01:25:10;;;;;;;89.43;38.93;;;0.20;92.00;;;-0.21;58.48;94369.06;5011457;28;20496;-62
2024/01/15 01:27:37;;;;;;;80.87;36.60;;;0.20;92.40;;;-0.21;57.79;94366.50;5011719;28;20493;-66
2024/01/15 01:30:06;;;;;;;88.53;37.27;;;0.20;92.20;;;-0.24;58.52;94361.50;5011636;28;20481;-66
2024/01/15 01:32:34;;;;;;;69.00;35.27;;;0.20;92.30;;;-0.24;57.84;94363.25;5011288;28;20484;-62
2024/01/15 01:35:03;;;;;;;71.73;33.30;;;0.10;92.20;;;-0.24;57.78;94350.34;5011379;28;20474;-66
2024/01/15 01:37:30;;;;;;;80.27;35.80;;;0.10;92.40;;;-0.23;58.59;94352.00;5011365;28;20552;-62
2024/01/15 01:39:58;;;;;;;80.43;35.73;;;0.10;92.40;;;-0.24;57.52;94345.16;5011153;28;20446;-65
2024/01/15 01:42:25;;;;;;;69.97;33.40;;;0.10;92.30;;;-0.24;58.21;94350.34;5011128;28;20496;-66
2024/01/15 01:44:53;;;;;;;94.23;37.07;;;0.10;92.20;;;-0.25;58.62;94346.06;5011256;28;20957;-62
2024/01/15 01:47:20;;;;;;;80.67;36.33;;;0.10;92.40;;;-0.26;57.80;94347.84;5011215;28;20454;-63
2024/01/15 01:49:47;;;;;;;83.90;37.83;;;0.10;92.20;;;-0.25;58.64;94346.06;5011048;28;20461;-61
2024/01/15 01:52:16;;;;;;;76.33;34.57;;;0.10;92.60;;;-0.25;57.92;94348.66;5011007;28;20887;-66
2024/01/15 01:54:44;;;;;;;81.10;34.57;;;0.10;92.40;;;-0.25;57.80;94343.50;5010886;28;20453;-67
2024/01/15 01:57:11;;;;;;;75.10;35.87;;;0.10;92.40;;;-0.27;58.00;94337.59;5010949;28;21013;-62
2024/01/15 01:59:38;;;;;;;66.50;32.70;;;0.10;92.40;;;-0.27;57.68;94332.44;5010983;28;20576;-62
2024/01/15 02:02:06;;;;;;;72.33;31.00;;;0.10;92.60;;;-0.27;57.82;94329.84;5010977;28;20493;-66
2024/01/15 02:04:33;;;;;;;103.37;38.90;;;0.10;92.40;;;-0.27;58.48;94332.44;5010862;28;20453;-66
2024/01/15 02:07:01;;;;;;;109.63;41.97;;;0.10;92.60;;;-0.27;57.54;94324.69;5010930;28;20476;-66
2024/01/15 02:09:29;;;;;;;83.43;35.77;;;0.10;92.60;;;-0.27;58.22;94340.19;5011387;28;20457;-66
2024/01/15 02:11:57;;;;;;;91.37;38.50;;;0.10;92.80;;;-0.28;57.98;94329.03;5010601;28;20468;-62
2024/01/15 02:14:24;;;;;;;75.83;32.70;;;0.10;92.40;;;-0.30;57.88;94325.66;5010930;28;20454;-62
2024/01/15 02:16:52;;;;;;;61.90;30.00;;;0.10;92.10;;;-0.33;58.15;94320.69;5012736;28;20466;-65
2024/01/15 02:19:19;;;;;;;63.40;31.10;;;0.10;92.10;;;-0.39;58.15;94313.28;5011200;28;20958;-66
2024/01/15 02:21:46;;;;;;;66.17;29.07;;;0.00;92.20;;;-0.47;57.61;94282.72;5010633;28;20572;-63
2024/01/15 02:24:15;;;;;;;68.30;32.90;;;0.00;92.10;;;-0.54;57.49;94281.44;5010496;28;20489;-66
2024/01/15 02:26:43;;;;;;;79.40;35.90;;;-0.10;91.80;;;-0.62;57.87;94268.94;5010499;28;20470;-66
2024/01/15 02:29:10;;;;;;;85.73;36.70;;;-0.20;92.00;;;-0.66;57.83;94274.38;5010500;28;21170;-62
2024/01/15 02:31:38;;;;;;;68.07;33.70;;;-0.30;92.10;;;-0.69;58.47;94277.94;5010932;28;20473;-66
2024/01/15 02:34:05;;;;;;;75.27;35.10;;;-0.30;92.60;;;-0.69;58.00;94277.13;5013298;28;20457;-60
2024/01/15 02:36:32;;;;;;;75.17;34.73;;;-0.30;92.70;;;-0.70;58.35;94281.44;5012202;28;20478;-62
2024/01/15 02:38:59;;;;;;;85.57;36.67;;;-0.30;92.80;;;-0.69;58.81;94283.13;5010325;28;20481;-66
2024/01/15 02:41:28;;;;;;;90.07;38.27;;;-0.30;93.10;;;-0.66;58.58;94282.13;5010100;28;20505;-61
2024/01/15 02:43:56;;;;;;;74.67;36.67;;;-0.30;93.10;;;-0.64;58.97;94288.03;5010472;28;20643;-67
2024/01/15 02:46:23;;;;;;;71.63;35.30;;;-0.30;93.10;;;-0.60;58.35;94279.19;5010775;28;20477;-67
2024/01/15 02:48:50;;;;;;;89.00;38.10;;;-0.20;93.10;;;-0.56;58.68;94284.09;5010297;28;20450;-66
2024/01/15 02:51:18;;;;;;;90.23;38.37;;;-0.20;93.10;;;-0.52;59.10;94279.56;5009905;28;21028;-66
2024/01/15 02:53:45;;;;;;;86.10;39.50;;;-0.20;93.20;;;-0.47;58.79;94276.72;5010294;28;20528;-62
2024/01/15 02:56:13;;;;;;;96.53;40.77;;;-0.10;93.00;;;-0.43;57.92;94280.81;5010145;28;20462;-61
2024/01/15 02:58:43;;;;;;;122.53;51.30;;;-0.10;92.90;;;-0.42;58.25;94279.88;5010432;28;20461;-66
2024/01/15 03:01:10;;;;;;;134.03;52.97;;;0.00;92.80;;;-0.42;58.83;94269.53;5010991;28;20469;-66
2024/01/15 03:03:37;;;;;;;136.03;56.70;;;0.00;93.00;;;-0.43;58.33;94273.88;5010766;28;20948;-61
2024/01/15 03:06:06;;;;;;;167.00;68.47;;;0.00;92.70;;;-0.42;58.72;94265.22;5010383;28;20477;-67
2024/01/15 03:08:35;;;;;;;161.20;67.97;;;0.00;92.70;;;-0.43;58.16;94267.91;5011637;28;20449;-66
2024/01/15 03:11:02;;;;;;;152.03;62.97;;;0.00;92.80;;;-0.44;58.05;94273.97;5010423;28;20552;-62
2024/01/15 03:13:29;;;;;;;148.57;64.87;;;0.00;92.70;;;-0.49;58.30;94271.66;5012659;28;20452;-62
2024/01/15 03:15:58;;;;;;;148.10;63.00;;;-0.10;92.70;;;-0.52;58.55;94261.50;5010582;28;20485;-67
2024/01/15 03:18:26;;;;;;;141.63;62.67;;;-0.10;92.70;;;-0.53;58.56;94259.81;5010303;28;20454;-62
2024/01/15 03:20:53;;;;;;;145.03;61.67;;;-0.10;92.80;;;-0.53;58.08;94262.41;5010304;28;20470;-62
2024/01/15 03:23:20;;;;;;;166.40;66.97;;;-0.10;93.00;;;-0.52;58.09;94258.09;5010165;28;20516;-66
2024/01/15 03:25:49;;;;;;;157.70;66.37;;;-0.10;92.80;;;-0.51;58.89;94252.00;5011667;28;20478;-64
2024/01/15 03:28:16;;;;;;;162.30;65.30;;;-0.10;92.90;;;-0.50;58.21;94257.06;5010407;28;20527;-63
2024/01/15 03:30:43;;;;;;;151.70;66.30;;;-0.10;92.90;;;-0.48;58.61;94259.56;5010301;28;20469;-67
2024/01/15 03:33:12;;;;;;;171.10;72.27;;;-0.10;93.20;;;-0.47;58.59;94261.22;5010084;28;20461;-66
2024/01/15 03:35:39;;;;;;;153.77;66.30;;;-0.10;93.20;;;-0.47;58.43;94261.22;5010165;28;20561;-64
2024/01/15 03:38:07;;;;;;;150.13;66.33;;;-0.10;92.90;;;-0.48;58.47;94257.81;5009641;28;20462;-62
2024/01/15 03:40:34;;;;;;;165.90;71.00;;;-0.10;93.20;;;-0.47;58.59;94261.22;5010274;28;20477;-67
2024/01/15 03:43:02;;;;;;;166.57;69.33;;;-0.10;92.90;;;-0.46;58.32;94252.56;5010210;28;20493;-67
2024/01/15 03:45:29;;;;;;;147.93;66.13;;;-0.10;92.90;;;-0.47;58.52;94259.47;5010478;28;20481;-63
2024/01/15 03:47:56;;;;;;;166.67;71.77;;;-0.10;93.10;;;-0.46;58.54;94255.97;5010094;28;20461;-63
2024/01/15 03:50:25;;;;;;;164.33;66.97;;;-0.10;93.00;;;-0.45;58.57;94247.31;5009859;28;20473;-67
2024/01/15 03:52:53;;;;;;;156.43;64.33;;;0.00;93.10;;;-0.43;58.41;94242.06;5010323;28;20481;-63
2024/01/15 03:55:20;;;;;;;136.03;59.23;;;-0.10;93.20;;;-0.43;58.32;94245.47;5010078;28;20501;-62
2024/01/15 03:57:47;;;;;;;139.43;49.77;;;0.00;93.00;;;-0.42;57.82;94244.56;5009889;28;20453;-62
2024/01/15 04:00:17;;;;;;;115.40;52.57;;;0.00;92.80;;;-0.42;58.10;94244.56;5009859;28;20466;-67
2024/01/15 04:02:44;;;;;;;115.60;49.27;;;0.00;92.70;;;-0.42;58.35;94238.53;5006421;28;20564;-66
2024/01/15 04:05:12;;;;;;;125.10;50.37;;;0.00;92.50;;;-0.47;58.23;94236.22;5011338;28;20485;-62
2024/01/15 04:07:40;;;;;;;122.47;52.57;;;0.00;92.50;;;-0.49;57.31;94227.75;5013657;28;20465;-62
2024/01/15 04:10:09;;;;;;;123.47;54.37;;;-0.10;92.30;;;-0.52;57.95;94237.44;5010407;28;20469;-61
2024/01/15 04:12:36;;;;;;;120.13;51.30;;;-0.10;92.30;;;-0.56;57.67;94240.19;5010211;28;20832;-66
2024/01/15 04:15:04;;;;;;;129.30;52.60;;;-0.10;92.40;;;-0.56;57.78;94234.16;5009579;28;20473;-62
2024/01/15 04:17:31;;;;;;;127.10;53.33;;;-0.20;92.40;;;-0.60;57.70;94236.09;5009529;28;20520;-62
2024/01/15 04:19:59;;;;;;;117.90;50.60;;;-0.20;92.60;;;-0.60;58.30;94235.28;5012184;28;20491;-64
2024/01/15 04:22:27;;;;;;;116.40;49.83;;;-0.20;92.40;;;-0.62;58.36;94229.34;5009098;28;20493;-66
2024/01/15 04:24:56;;;;;;;112.83;50.03;;;-0.20;92.60;;;-0.63;57.68;94228.53;5009861;28;20446;-66
2024/01/15 04:27:24;;;;;;;109.10;48.20;;;-0.20;92.40;;;-0.64;58.22;94231.22;5009426;28;20457;-66
2024/01/15 04:29:51;;;;;;;113.87;49.73;;;-0.20;92.70;;;-0.65;58.46;94229.53;5009706;28;20531;-62
2024/01/15 04:32:19;;;;;;;114.97;48.40;;;-0.20;92.70;;;-0.67;58.38;94223.63;5009765;28;20453;-66
2024/01/15 04:34:46;;;;;;;107.70;47.43;;;-0.30;92.50;;;-0.68;58.17;94227.13;5009801;28;20453;-66
2024/01/15 04:37:14;;;;;;;118.53;48.47;;;-0.30;92.70;;;-0.72;58.13;94232.47;5010028;28;20465;-68
2024/01/15 04:39:41;;;;;;;108.83;47.00;;;-0.30;92.70;;;-0.72;57.72;94226.47;5008287;28;20453;-67
2024/01/15 04:42:10;;;;;;;114.77;47.20;;;-0.30;92.80;;;-0.73;59.15;94230.81;5009024;28;20489;-67
2024/01/15 04:44:38;;;;;;;137.10;48.57;;;-0.30;93.00;;;-0.72;58.51;94227.31;5009200;28;20444;-67
2024/01/15 04:47:06;;;;;;;107.37;45.00;;;-0.30;93.00;;;-0.73;58.07;94225.66;5004534;28;20460;-63
2024/01/15 04:49:33;;;;;;;98.70;42.60;;;-0.30;92.90;;;-0.73;58.01;94217.06;5008809;28;20459;-62
2024/01/15 04:52:00;;;;;;;103.10;43.23;;;-0.30;92.80;;;-0.73;58.83;94214.47;5012285;28;21024;-63
2024/01/15 04:54:28;;;;;;;95.43;43.33;;;-0.30;93.10;;;-0.72;58.78;94216.16;5010358;28;20531;-63
2024/01/15 04:56:55;;;;;;;110.83;43.27;;;-0.30;93.00;;;-0.70;58.68;94208.31;5011891;28;21015;-59
2024/01/15 04:59:24;;;;;;;103.47;45.30;;;-0.30;92.90;;;-0.70;58.23;94221.22;5012252;28;20450;-63
2024/01/15 05:01:52;;;;;;;119.97;47.80;;;-0.30;93.10;;;-0.67;58.57;94202.97;5011036;28;20449;-62
2024/01/15 05:04:19;;;;;;;108.70;47.43;;;-0.30;92.90;;;-0.67;58.23;94197.81;5008540;28;20978;-64
2024/01/15 05:06:46;;;;;;;120.63;49.80;;;-0.30;93.10;;;-0.66;58.39;94200.31;5012581;28;20500;-63
2024/01/15 05:09:14;;;;;;;122.57;50.83;;;-0.30;93.10;;;-0.65;58.46;94198.56;5012631;28;20461;-63
2024/01/15 05:11:41;;;;;;;116.57;50.83;;;-0.20;93.20;;;-0.61;58.88;94212.97;5012953;28;20552;-63
2024/01/15 05:14:08;;;;;;;124.87;50.60;;;-0.20;93.10;;;-0.60;59.11;94209.47;5012263;28;20450;-63
2024/01/15 05:16:39;;;;;;;129.70;53.43;;;-0.20;93.10;;;-0.57;58.30;94204.94;5008290;28;20552;-63
2024/01/15 05:19:08;;;;;;;136.23;54.67;;;-0.20;93.10;;;-0.55;59.35;94207.44;5009221;28;20539;-62
2024/01/15 05:21:35;;;;;;;144.97;57.23;;;-0.20;93.30;;;-0.53;59.22;94202.19;5012426;28;20851;-63
2024/01/15 05:24:03;;;;;;;132.40;53.63;;;-0.10;93.40;;;-0.53;57.91;94202.19;5011818;28;20489;-63
2024/01/15 05:26:31;;;;;;;141.00;53.93;;;-0.10;93.20;;;-0.53;58.61;94207.34;5012535;28;20481;-62
2024/01/15 05:28:58;;;;;;;141.87;57.37;;;-0.10;93.50;;;-0.57;58.37;94202.34;5012460;28;20537;-63
2024/01/15 05:31:26;;;;;;;148.43;60.67;;;-0.10;93.20;;;-0.58;58.99;94192.94;5013189;28;20489;-62
2024/01/15 05:33:55;;;;;;;153.30;58.57;;;-0.20;93.60;;;-0.57;58.82;94193.78;5010732;28;20465;-68
2024/01/15 05:36:22;;;;;;;132.53;58.30;;;-0.20;93.40;;;-0.58;58.71;94197.28;5011854;28;20476;-63
2024/01/15 05:38:50;;;;;;;133.07;57.70;;;-0.20;93.50;;;-0.58;59.01;94186.94;5010763;28;20449;-67
2024/01/15 05:41:17;;;;;;;141.33;56.17;;;-0.20;93.30;;;-0.58;58.82;94197.28;5011933;28;20473;-67
2024/01/15 05:43:45;;;;;;;147.50;61.10;;;-0.20;93.60;;;-0.59;60.24;94190.44;5012234;28;20497;-62
2024/01/15 05:46:12;;;;;;;165.23;62.73;;;-0.20;94.40;;;-0.64;58.80;94172.63;5012041;28;20509;-68
2024/01/15 05:48:40;;;;;;;172.47;62.23;;;-0.20;94.00;;;-0.68;59.13;94167.75;5012886;28;20453;-61
2024/01/15 05:51:09;;;;;;;157.83;64.07;;;-0.20;93.80;;;-0.70;59.16;94177.34;5007980;28;20567;-62
2024/01/15 05:53:40;;;;;;;153.33;61.87;;;-0.30;93.60;;;-0.70;58.98;94177.34;5011968;28;20454;-63
2024/01/15 05:56:07;;;;;;;141.93;58.53;;;-0.30;93.70;;;-0.73;58.90;94179.19;5011642;28;20508;-67
2024/01/15 05:58:35;;;;;;;149.33;56.10;;;-0.30;93.70;;;-0.74;58.73;94187.84;5012075;28;20454;-66
2024/01/15 06:01:02;;;;;;;137.90;56.07;;;-0.30;93.70;;;-0.73;59.41;94192.09;5012887;28;20470;-62
2024/01/15 06:03:29;;;;;;;142.10;56.67;;;-0.30;94.10;;;-0.69;59.29;94189.34;5013080;28;20519;-67
2024/01/15 06:05:57;;;;;;;139.63;55.43;;;-0.30;94.30;;;-0.66;59.80;94191.75;5013456;28;20470;-63
2024/01/15 06:08:27;;;;;;;132.60;55.67;;;-0.30;94.20;;;-0.64;58.96;94190.72;5012131;28;20526;-67
2024/01/15 06:10:55;;;;;;;134.50;56.10;;;-0.30;93.90;;;-0.61;59.17;94187.13;5011739;28;20847;-63
2024/01/15 06:13:22;;;;;;;144.20;58.57;;;-0.20;93.80;;;-0.63;58.97;94189.81;5011221;28;20485;-67
2024/01/15 06:15:50;;;;;;;131.03;54.17;;;-0.20;94.10;;;-0.61;59.09;94187.13;5011461;28;20477;-66
2024/01/15 06:18:17;;;;;;;128.03;54.70;;;-0.20;93.90;;;-0.55;59.10;94181.59;5011493;28;20476;-67
2024/01/15 06:20:44;;;;;;;128.57;55.20;;;-0.20;94.10;;;-0.42;59.20;94158.44;5011498;28;21150;-63
2024/01/15 06:23:12;;;;;;;141.03;55.83;;;-0.10;94.20;;;-0.20;59.54;94165.78;5011340;28;21115;-67
2024/01/15 06:25:40;;;;;;;117.97;53.03;;;0.10;94.70;;;0.10;59.11;94170.00;5011022;28;20846;-67
2024/01/15 06:28:08;;;;;;;118.70;52.97;;;0.30;94.50;;;0.32;58.06;94170.31;5011315;28;20544;-62
2024/01/15 06:30:36;;;;;;;120.60;51.20;;;0.60;94.10;;;0.50;57.98;94181.28;5011335;28;20473;-66
2024/01/15 06:33:03;;;;;;;108.97;51.00;;;0.80;94.10;;;0.76;58.32;94177.94;5010184;28;20462;-67
2024/01/15 06:35:31;;;;;;;111.37;48.00;;;1.00;93.60;;;1.17;57.10;94177.88;5012281;28;20974;-66
2024/01/15 06:37:58;;;;;;;113.07;48.03;;;1.40;93.40;;;1.55;56.87;94178.84;5010821;28;20456;-66
2024/01/15 06:40:25;;;;;;;107.33;44.07;;;1.70;92.90;;;1.90;56.14;94173.06;5011386;28;20584;-62
2024/01/15 06:42:54;;;;;;;94.50;45.03;;;2.10;92.00;;;2.05;55.64;94168.59;5010610;28;20489;-63
2024/01/15 06:45:21;;;;;;;107.67;46.60;;;2.30;91.30;;;2.06;55.38;94168.50;5010708;28;20481;-67
2024/01/15 06:47:49;;;;;;;119.97;52.03;;;2.40;90.70;;;2.09;54.81;94160.50;5010566;28;20801;-67
2024/01/15 06:50:16;;;;;;;129.07;55.40;;;2.40;90.60;;;2.08;55.82;94161.41;5010429;28;20850;-62
2024/01/15 06:52:43;;;;;;;125.27;58.73;;;2.40;90.50;;;2.05;55.45;94172.00;5010576;28;20461;-62
2024/01/15 06:55:11;;;;;;;118.03;54.30;;;2.40;90.40;;;2.06;55.88;94172.81;5010369;28;20477;-63
2024/01/15 06:57:38;;;;;;;115.80;53.97;;;2.40;90.40;;;2.04;54.77;94180.72;5012835;28;20480;-62
2024/01/15 07:00:09;;;;;;;123.17;55.67;;;2.40;90.50;;;2.01;54.74;94182.69;5010824;28;20481;-67
2024/01/15 07:02:36;;;;;;;138.30;59.50;;;2.30;90.50;;;1.99;55.05;94200.13;5009522;28;20477;-63
2024/01/15 07:05:05;;;;;;;122.00;55.80;;;2.30;90.60;;;1.95;54.70;94178.75;5010359;28;21009;-67
2024/01/15 07:07:32;;;;;;;127.70;58.03;;;2.20;90.50;;;1.89;55.48;94180.03;5013022;28;20981;-68
2024/01/15 07:09:59;;;;;;;121.10;55.17;;;2.20;90.50;;;1.85;54.77;94168.19;5010644;28;20461;-68
2024/01/15 07:12:27;;;;;;;119.57;56.40;;;2.20;90.60;;;1.82;55.58;94170.16;5011201;28;20450;-63
2024/01/15 07:14:55;;;;;;;112.93;50.43;;;2.10;90.70;;;1.78;56.30;94175.56;5010575;28;20807;-67
2024/01/15 07:17:24;;;;;;;107.10;49.20;;;2.10;90.80;;;1.77;55.41;94176.47;5010388;28;20898;-62
2024/01/15 07:19:51;;;;;;;125.43;52.47;;;2.10;91.10;;;1.81;57.06;94184.06;5009946;28;21009;-63
2024/01/15 07:22:19;;;;;;;123.30;51.27;;;2.10;92.60;;;1.83;56.59;94177.84;5010094;28;20454;-67
2024/01/15 07:24:47;;;;;;;106.17;51.07;;;2.10;91.50;;;1.80;55.67;94175.47;5009882;28;20493;-67
2024/01/15 07:27:14;;;;;;;122.27;52.00;;;2.10;91.50;;;1.77;56.60;94179.06;5010084;28;20457;-62
2024/01/15 07:29:42;;;;;;;108.77;49.50;;;2.10;91.20;;;1.74;56.47;94184.47;5010042;28;20453;-63
2024/01/15 07:32:10;;;;;;;101.23;47.90;;;2.00;91.20;;;1.70;57.23;94180.41;5009058;28;20453;-62
2024/01/15 07:34:40;;;;;;;125.53;55.07;;;2.00;91.40;;;1.70;56.45;94171.81;5010641;28;20449;-67
2024/01/15 07:37:07;;;;;;;109.73;53.13;;;2.00;91.40;;;1.68;55.78;94164.16;5010128;28;20484;-66
2024/01/15 07:39:53;;;;;;;117.50;53.87;;;2.00;91.40;;;1.68;55.81;94169.31;5011281;28;20560;-62
2024/01/15 07:42:20;;;;;;;129.40;55.20;;;2.00;91.40;;;1.68;56.91;94160.72;5010098;28;20453;-62
2024/01/15 07:44:47;;;;;;;116.73;53.47;;;2.00;91.40;;;1.67;56.62;94162.47;5010084;28;20858;-66
2024/01/15 07:47:15;;;;;;;123.63;57.00;;;2.00;91.30;;;1.67;56.29;94177.22;5009638;28;20614;-63
2024/01/15 07:49:43;;;;;;;119.73;56.53;;;2.00;91.40;;;1.68;56.75;94176.28;5010096;28;20458;-62
2024/01/15 07:52:12;;;;;;;129.10;56.50;;;2.00;91.40;;;1.67;56.65;94179.81;5010196;28;20956;-66
2024/01/15 07:54:40;;;;;;;129.13;54.50;;;2.00;91.40;;;1.66;56.32;94160.84;5009751;28;20493;-62
2024/01/15 07:57:07;;;;;;;114.97;55.73;;;2.00;91.40;;;1.68;56.25;94143.41;5009872;28;20445;-67
2024/01/15 07:59:36;;;;;;;122.93;57.07;;;2.00;91.40;;;1.66;56.10;94147.88;5009639;28;20457;-68
2024/01/15 08:02:03;;;;;;;130.00;57.57;;;2.00;91.10;;;1.63;56.06;94148.09;5009295;28;20466;-62
2024/01/15 08:04:31;;;;;;;125.97;60.40;;;1.90;91.40;;;1.61;56.91;94153.38;5008917;28;20880;-67
2024/01/15 08:07:00;;;;;;;135.10;61.77;;;1.90;91.40;;;1.65;57.16;94177.31;5009952;28;20470;-63
2024/01/15 08:09:29;;;;;;;146.77;62.17;;;1.90;91.90;;;1.71;56.59;94178.66;5009301;28;20500;-67
2024/01/15 08:11:56;;;;;;;132.03;62.77;;;2.00;91.90;;;1.80;57.43;94185.81;5011943;28;20478;-62
2024/01/15 08:14:24;;;;;;;141.70;65.80;;;2.00;92.10;;;1.89;57.16;94171.38;5012436;28;20465;-62
2024/01/15 08:16:51;;;;;;;145.07;64.53;;;2.10;92.20;;;1.93;56.50;94172.84;5009977;28;20500;-63
2024/01/15 08:19:19;;;;;;;145.13;67.47;;;2.20;91.50;;;1.94;56.74;94179.72;5009738;28;20481;-62
2024/01/15 08:21:47;;;;;;;155.60;67.87;;;2.20;91.50;;;1.93;56.60;94178.03;5009566;28;20532;-63
2024/01/15 08:24:16;;;;;;;162.60;67.70;;;2.20;92.20;;;1.99;57.22;94169.00;5012486;28;20488;-62
2024/01/15 08:26:44;;;;;;;167.40;67.53;;;2.30;91.70;;;2.02;57.26;94186.97;5009362;28;20488;-66
2024/01/15 08:29:11;;;;;;;152.97;66.00;;;2.30;91.80;;;2.11;56.27;94160.38;5013508;28;20453;-62
2024/01/15 08:31:39;;;;;;;157.50;67.63;;;2.30;92.00;;;2.13;56.41;94159.31;5014036;28;20877;-68
2024/01/15 08:34:06;;;;;;;148.93;68.53;;;2.40;91.60;;;2.19;56.05;94160.69;5013587;28;20485;-67
2024/01/15 08:36:35;;;;;;;143.93;62.10;;;2.40;91.70;;;2.37;56.05;94160.31;5013534;28;20470;-68
2024/01/15 08:39:03;;;;;;;132.90;65.30;;;2.60;91.70;;;2.54;56.06;94156.53;5012951;28;20472;-63
2024/01/15 08:41:33;;;;;;;170.13;73.47;;;2.70;91.40;;;2.63;55.35;94156.72;5009336;28;20477;-69
2024/01/15 08:44:00;;;;;;;156.47;71.23;;;2.80;91.30;;;2.72;56.26;94168.19;5009587;28;20501;-69
2024/01/15 08:46:27;;;;;;;158.67;74.30;;;2.90;91.30;;;2.82;55.05;94161.41;5011219;28;20534;-71
2024/01/15 08:48:55;;;;;;;168.40;78.20;;;3.00;91.10;;;2.92;56.21;94164.16;5013620;28;20460;-71
2024/01/15 08:51:22;;;;;;;160.90;73.67;;;3.10;91.20;;;3.03;55.99;94147.81;5015162;28;20563;-62
2024/01/15 08:53:49;;;;;;;157.20;70.90;;;3.20;91.30;;;3.14;54.83;94134.84;5009338;28;20508;-62
2024/01/15 08:56:17;;;;;;;143.13;67.57;;;3.30;90.80;;;3.25;55.02;94133.22;5014627;28;20470;-62
2024/01/15 08:58:46;;;;;;;161.03;69.07;;;3.50;90.80;;;3.38;54.83;94131.38;5012529;28;20458;-63
2024/01/15 09:01:13;;;;;;;148.97;69.67;;;3.60;90.60;;;3.66;55.28;94137.94;5008909;28;20600;-70
2024/01/15 09:03:42;;;;;;;136.90;59.27;;;3.80;90.90;;;4.05;54.33;94129.81;5011483;28;21044;-64
2024/01/15 09:06:10;;;;;;;126.63;59.83;;;4.10;91.10;;;4.38;53.73;94123.72;5008705;28;20466;-70
2024/01/15 09:08:37;;;;;;;139.87;61.50;;;4.40;90.10;;;4.67;52.37;94079.75;5009110;28;20481;-64
2024/01/15 09:11:05;;;;;;;130.50;60.47;;;4.70;88.30;;;5.01;52.73;94094.41;5009138;28;20917;-62
2024/01/15 09:13:33;;;;;;;122.67;54.60;;;5.00;88.30;;;5.50;52.96;94084.31;5009015;28;20461;-68
2024/01/15 09:16:02;;;;;;;136.90;59.57;;;5.40;88.90;;;6.03;51.49;94078.16;5013121;28;20470;-64
2024/01/15 09:18:29;;;;;;;134.90;63.90;;;5.90;86.60;;;6.67;50.87;94081.34;5008919;28;20458;-65
2024/01/15 09:20:57;;;;;;;124.07;58.20;;;6.50;85.70;;;7.31;49.43;94072.09;5009874;28;20489;-66
2024/01/15 09:23:24;;;;;;;114.70;57.30;;;7.10;83.30;;;7.92;48.11;94070.88;5009591;28;20501;-67
2024/01/15 09:25:52;;;;;;;111.20;56.67;;;7.70;80.80;;;8.56;47.40;94063.94;5008346;28;20482;-67
2024/01/15 09:28:19;;;;;;;132.90;61.20;;;8.30;79.40;;;9.17;46.12;94055.50;5008741;28;21049;-70
2024/01/15 09:30:47;;;;;;;117.60;59.43;;;8.90;75.70;;;9.66;45.86;94048.81;5017570;28;20478;-64
2024/01/15 09:33:16;;;;;;;123.07;60.50;;;9.40;75.30;;;10.07;43.40;94042.13;5006566;28;20488;-65
2024/01/15 09:35:43;;;;;;;129.93;63.97;;;9.80;70.20;;;10.49;42.94;94049.25;5007900;28;20497;-66
2024/01/15 09:38:11;;;;;;;125.63;60.90;;;10.20;67.20;;;10.87;43.20;94049.66;5008014;28;20472;-65
2024/01/15 09:40:39;;;;;;;126.37;59.80;;;10.50;67.80;;;11.08;42.36;94041.31;5011595;28;20552;-66
2024/01/15 09:43:06;;;;;;;112.57;58.87;;;10.80;65.80;;;11.27;39.09;94029.63;5008238;28;20450;-65
2024/01/15 09:45:34;;;;;;;114.93;55.37;;;11.00;60.20;;;11.32;39.61;94019.41;5011594;28;20528;-66
2024/01/15 09:48:01;;;;;;;92.60;50.90;;;11.20;60.20;;;11.41;39.76;94005.25;5013503;28;20454;-65
2024/01/15 09:50:30;;;;;;;104.07;49.60;;;11.20;59.00;;;11.52;38.42;93996.19;5011273;28;20480;-65
2024/01/15 09:52:58;;;;;;;95.10;51.67;;;11.30;58.00;;;11.61;40.36;93992.56;5008713;28;20446;-65
2024/01/15 09:55:25;;;;;;;103.87;52.07;;;11.40;60.10;;;11.78;41.06;93982.00;5007526;28;20591;-66
2024/01/15 09:57:53;;;;;;;112.00;54.47;;;11.60;61.10;;;12.00;38.45;94007.63;5007374;28;20454;-64
2024/01/15 10:00:20;;;;;;;92.30;53.77;;;11.70;58.00;;;12.22;36.50;93978.06;5007598;28;20505;-65
2024/01/15 10:02:47;;;;;;;94.17;49.17;;;11.90;55.10;;;12.08;37.36;93988.31;5006986;28;20458;-65
2024/01/15 10:05:15;;;;;;;92.93;46.73;;;11.80;55.30;;;11.72;39.63;93996.66;5019456;28;20493;-65
2024/01/15 10:07:44;;;;;;;97.53;46.57;;;11.60;57.40;;;11.66;38.96;93985.00;5011818;28;20516;-66
2024/01/15 10:10:12;;;;;;;77.40;43.07;;;11.50;56.60;;;11.87;37.73;93959.06;5007421;28;20822;-64